sensor_id;sensor_type;location;lat;lon;timestamp;P1;durP1;ratioP1;P2;durP2;ratioP2
41629;SDS011;27322;49.488;8.480;2022-08-25T00:01:36;4.28;;;1.88;;
41629;SDS011;27322;49.488;8.480;2022-08-25T00:04:06;4.50;;;1.80;;
41629;SDS011;27322;49.488;8.480;2022-08-25T00:06:37;4.15;;;1.48;;
41629;SDS011;27322;49.488;8.480;2022-08-25T00:09:05;4.72;;;1.50;;
41629;SDS011;27322;49.488;8.480;2022-08-25T00:11:32;6.30;;;1.80;;
41629;SDS011;27322;49.488;8.480;2022-08-25T00:14:01;2.70;;;1.48;;
41629;SDS011;27322;49.488;8.480;2022-08-25T00:16:28;2.80;;;1.30;;
41629;SDS011;27322;49.488;8.480;2022-08-25T00:18:56;3.60;;;1.35;;
41629;SDS011;27322;49.488;8.480;2022-08-25T00:21:25;3.03;;;1.63;;
41629;SDS011;27322;49.488;8.480;2022-08-25T00:23:52;5.30;;;1.65;;
41629;SDS011;27322;49.488;8.480;2022-08-25T00:26:18;3.00;;;1.60;;
41629;SDS011;27322;49.488;8.480;2022-08-25T00:28:44;2.90;;;1.80;;
41629;SDS011;27322;49.488;8.480;2022-08-25T00:31:11;5.53;;;1.83;;
41629;SDS011;27322;49.488;8.480;2022-08-25T00:33:39;4.80;;;2.28;;
41629;SDS011;27322;49.488;8.480;2022-08-25T00:36:05;3.70;;;1.80;;
41629;SDS011;27322;49.488;8.480;2022-08-25T00:38:31;4.80;;;1.80;;
41629;SDS011;27322;49.488;8.480;2022-08-25T00:40:56;3.88;;;1.70;;
41629;SDS011;27322;49.488;8.480;2022-08-25T00:46:07;3.30;;;1.60;;
41629;SDS011;27322;49.488;8.480;2022-08-25T00:48:33;2.78;;;1.52;;
41629;SDS011;27322;49.488;8.480;2022-08-25T00:50:59;3.00;;;1.70;;
41629;SDS011;27322;49.488;8.480;2022-08-25T00:53:27;3.47;;;1.63;;
41629;SDS011;27322;49.488;8.480;2022-08-25T00:55:53;3.35;;;1.40;;
41629;SDS011;27322;49.488;8.480;2022-08-25T00:58:20;3.47;;;1.70;;
41629;SDS011;27322;49.488;8.480;2022-08-25T01:00:52;3.70;;;1.60;;
41629;SDS011;27322;49.488;8.480;2022-08-25T01:03:21;6.13;;;1.77;;
41629;SDS011;27322;49.488;8.480;2022-08-25T01:05:48;3.67;;;1.77;;
41629;SDS011;27322;49.488;8.480;2022-08-25T01:08:14;4.88;;;1.95;;
41629;SDS011;27322;49.488;8.480;2022-08-25T01:10:46;3.50;;;1.60;;
41629;SDS011;27322;49.488;8.480;2022-08-25T01:13:21;3.17;;;1.70;;
41629;SDS011;27322;49.488;8.480;2022-08-25T01:15:52;3.83;;;1.77;;
41629;SDS011;27322;49.488;8.480;2022-08-25T01:18:20;3.50;;;1.70;;
41629;SDS011;27322;49.488;8.480;2022-08-25T01:20:48;3.65;;;2.05;;
41629;SDS011;27322;49.488;8.480;2022-08-25T01:23:14;4.07;;;1.58;;
41629;SDS011;27322;49.488;8.480;2022-08-25T01:28:09;3.05;;;1.88;;
41629;SDS011;27322;49.488;8.480;2022-08-25T01:30:36;3.53;;;2.03;;
41629;SDS011;27322;49.488;8.480;2022-08-25T01:33:05;4.35;;;2.22;;
41629;SDS011;27322;49.488;8.480;2022-08-25T01:35:33;2.92;;;1.73;;
41629;SDS011;27322;49.488;8.480;2022-08-25T01:38:00;2.90;;;1.63;;
41629;SDS011;27322;49.488;8.480;2022-08-25T01:40:27;3.20;;;2.00;;
41629;SDS011;27322;49.488;8.480;2022-08-25T01:45:35;4.57;;;1.85;;
41629;SDS011;27322;49.488;8.480;2022-08-25T01:48:02;3.17;;;1.90;;
41629;SDS011;27322;49.488;8.480;2022-08-25T01:50:29;3.92;;;2.03;;
41629;SDS011;27322;49.488;8.480;2022-08-25T01:55:23;4.07;;;2.20;;
41629;SDS011;27322;49.488;8.480;2022-08-25T01:57:49;4.25;;;2.20;;
41629;SDS011;27322;49.488;8.480;2022-08-25T02:00:16;4.30;;;2.20;;
41629;SDS011;27322;49.488;8.480;2022-08-25T02:02:43;4.00;;;2.30;;
41629;SDS011;27322;49.488;8.480;2022-08-25T02:05:09;4.15;;;2.33;;
41629;SDS011;27322;49.488;8.480;2022-08-25T02:07:38;5.00;;;2.17;;
41629;SDS011;27322;49.488;8.480;2022-08-25T02:10:05;4.50;;;2.28;;
41629;SDS011;27322;49.488;8.480;2022-08-25T02:12:32;4.35;;;2.42;;
41629;SDS011;27322;49.488;8.480;2022-08-25T02:14:58;4.22;;;2.20;;
41629;SDS011;27322;49.488;8.480;2022-08-25T02:17:25;4.32;;;2.38;;
41629;SDS011;27322;49.488;8.480;2022-08-25T02:19:52;4.32;;;2.60;;
41629;SDS011;27322;49.488;8.480;2022-08-25T02:22:19;3.60;;;2.30;;
41629;SDS011;27322;49.488;8.480;2022-08-25T02:24:45;4.07;;;2.38;;
41629;SDS011;27322;49.488;8.480;2022-08-25T02:27:12;5.78;;;2.60;;
41629;SDS011;27322;49.488;8.480;2022-08-25T02:29:37;4.43;;;2.45;;
41629;SDS011;27322;49.488;8.480;2022-08-25T02:32:03;4.93;;;2.63;;
41629;SDS011;27322;49.488;8.480;2022-08-25T02:34:29;5.25;;;2.30;;
41629;SDS011;27322;49.488;8.480;2022-08-25T02:36:55;4.53;;;2.50;;
41629;SDS011;27322;49.488;8.480;2022-08-25T02:39:21;4.75;;;2.53;;
41629;SDS011;27322;49.488;8.480;2022-08-25T02:41:46;5.47;;;2.13;;
41629;SDS011;27322;49.488;8.480;2022-08-25T02:44:12;3.88;;;2.08;;
41629;SDS011;27322;49.488;8.480;2022-08-25T02:46:38;4.78;;;2.30;;
41629;SDS011;27322;49.488;8.480;2022-08-25T02:49:04;6.10;;;2.50;;
41629;SDS011;27322;49.488;8.480;2022-08-25T02:51:30;4.60;;;2.25;;
41629;SDS011;27322;49.488;8.480;2022-08-25T02:53:58;3.83;;;2.13;;
41629;SDS011;27322;49.488;8.480;2022-08-25T02:56:26;4.70;;;2.83;;
41629;SDS011;27322;49.488;8.480;2022-08-25T02:58:53;4.53;;;2.65;;
41629;SDS011;27322;49.488;8.480;2022-08-25T03:01:19;3.67;;;2.45;;
41629;SDS011;27322;49.488;8.480;2022-08-25T03:03:46;4.63;;;2.50;;
41629;SDS011;27322;49.488;8.480;2022-08-25T03:06:13;4.85;;;2.83;;
41629;SDS011;27322;49.488;8.480;2022-08-25T03:08:40;4.38;;;2.47;;
41629;SDS011;27322;49.488;8.480;2022-08-25T03:11:07;4.53;;;2.60;;
41629;SDS011;27322;49.488;8.480;2022-08-25T03:13:32;5.18;;;2.70;;
41629;SDS011;27322;49.488;8.480;2022-08-25T03:15:58;4.45;;;2.42;;
41629;SDS011;27322;49.488;8.480;2022-08-25T03:18:25;5.13;;;2.67;;
41629;SDS011;27322;49.488;8.480;2022-08-25T03:20:51;4.00;;;2.40;;
41629;SDS011;27322;49.488;8.480;2022-08-25T03:23:17;5.45;;;2.60;;
41629;SDS011;27322;49.488;8.480;2022-08-25T03:25:43;5.65;;;2.75;;
41629;SDS011;27322;49.488;8.480;2022-08-25T03:28:28;7.70;;;2.75;;
41629;SDS011;27322;49.488;8.480;2022-08-25T03:30:56;7.32;;;3.25;;
41629;SDS011;27322;49.488;8.480;2022-08-25T03:33:24;6.28;;;2.90;;
41629;SDS011;27322;49.488;8.480;2022-08-25T03:35:51;4.97;;;2.58;;
41629;SDS011;27322;49.488;8.480;2022-08-25T03:38:17;5.63;;;3.05;;
41629;SDS011;27322;49.488;8.480;2022-08-25T03:40:42;5.03;;;3.00;;
41629;SDS011;27322;49.488;8.480;2022-08-25T03:43:08;5.95;;;3.00;;
41629;SDS011;27322;49.488;8.480;2022-08-25T03:45:34;6.25;;;2.97;;
41629;SDS011;27322;49.488;8.480;2022-08-25T03:48:04;6.20;;;2.95;;
41629;SDS011;27322;49.488;8.480;2022-08-25T03:50:30;6.25;;;3.20;;
41629;SDS011;27322;49.488;8.480;2022-08-25T03:52:56;5.97;;;3.33;;
41629;SDS011;27322;49.488;8.480;2022-08-25T03:55:22;5.88;;;3.47;;
41629;SDS011;27322;49.488;8.480;2022-08-25T03:57:49;6.07;;;3.58;;
41629;SDS011;27322;49.488;8.480;2022-08-25T04:00:16;5.95;;;3.33;;
41629;SDS011;27322;49.488;8.480;2022-08-25T04:02:42;6.30;;;3.35;;
41629;SDS011;27322;49.488;8.480;2022-08-25T04:05:08;5.20;;;3.42;;
41629;SDS011;27322;49.488;8.480;2022-08-25T04:07:34;4.93;;;3.10;;
41629;SDS011;27322;49.488;8.480;2022-08-25T04:09:59;7.47;;;3.53;;
41629;SDS011;27322;49.488;8.480;2022-08-25T04:12:25;6.38;;;3.55;;
41629;SDS011;27322;49.488;8.480;2022-08-25T04:14:51;8.02;;;3.90;;
41629;SDS011;27322;49.488;8.480;2022-08-25T04:17:17;6.93;;;3.40;;
41629;SDS011;27322;49.488;8.480;2022-08-25T04:19:42;6.97;;;3.80;;
41629;SDS011;27322;49.488;8.480;2022-08-25T04:22:08;6.68;;;3.53;;
41629;SDS011;27322;49.488;8.480;2022-08-25T04:24:34;6.03;;;3.70;;
41629;SDS011;27322;49.488;8.480;2022-08-25T04:26:59;5.65;;;3.17;;
41629;SDS011;27322;49.488;8.480;2022-08-25T04:29:25;6.38;;;3.53;;
41629;SDS011;27322;49.488;8.480;2022-08-25T04:31:52;6.05;;;3.75;;
41629;SDS011;27322;49.488;8.480;2022-08-25T04:34:19;5.30;;;3.45;;
41629;SDS011;27322;49.488;8.480;2022-08-25T04:36:46;6.15;;;3.50;;
41629;SDS011;27322;49.488;8.480;2022-08-25T04:39:14;6.30;;;3.58;;
41629;SDS011;27322;49.488;8.480;2022-08-25T04:41:40;5.63;;;3.60;;
41629;SDS011;27322;49.488;8.480;2022-08-25T04:44:06;6.15;;;3.85;;
41629;SDS011;27322;49.488;8.480;2022-08-25T04:46:32;6.85;;;4.10;;
41629;SDS011;27322;49.488;8.480;2022-08-25T04:48:59;9.60;;;4.40;;
41629;SDS011;27322;49.488;8.480;2022-08-25T04:51:28;8.55;;;4.20;;
41629;SDS011;27322;49.488;8.480;2022-08-25T04:54:00;7.25;;;3.83;;
41629;SDS011;27322;49.488;8.480;2022-08-25T04:56:28;7.55;;;3.70;;
41629;SDS011;27322;49.488;8.480;2022-08-25T04:59:00;6.32;;;4.00;;
41629;SDS011;27322;49.488;8.480;2022-08-25T05:01:27;9.30;;;4.00;;
41629;SDS011;27322;49.488;8.480;2022-08-25T05:04:03;6.35;;;3.72;;
41629;SDS011;27322;49.488;8.480;2022-08-25T05:06:30;7.47;;;3.47;;
41629;SDS011;27322;49.488;8.480;2022-08-25T05:08:57;7.95;;;3.33;;
41629;SDS011;27322;49.488;8.480;2022-08-25T05:11:23;6.55;;;3.42;;
41629;SDS011;27322;49.488;8.480;2022-08-25T05:13:50;6.55;;;3.30;;
41629;SDS011;27322;49.488;8.480;2022-08-25T05:16:18;5.95;;;3.28;;
41629;SDS011;27322;49.488;8.480;2022-08-25T05:18:46;6.28;;;3.10;;
41629;SDS011;27322;49.488;8.480;2022-08-25T05:21:13;8.10;;;3.50;;
41629;SDS011;27322;49.488;8.480;2022-08-25T05:23:41;7.30;;;3.60;;
41629;SDS011;27322;49.488;8.480;2022-08-25T05:26:09;6.82;;;3.22;;
41629;SDS011;27322;49.488;8.480;2022-08-25T05:28:37;6.88;;;3.60;;
41629;SDS011;27322;49.488;8.480;2022-08-25T05:31:07;6.10;;;3.45;;
41629;SDS011;27322;49.488;8.480;2022-08-25T05:33:35;5.43;;;3.40;;
41629;SDS011;27322;49.488;8.480;2022-08-25T05:36:02;5.72;;;3.45;;
41629;SDS011;27322;49.488;8.480;2022-08-25T05:38:28;6.38;;;3.75;;
41629;SDS011;27322;49.488;8.480;2022-08-25T05:40:58;6.43;;;3.65;;
41629;SDS011;27322;49.488;8.480;2022-08-25T05:43:25;7.35;;;3.70;;
41629;SDS011;27322;49.488;8.480;2022-08-25T05:45:53;7.80;;;3.92;;
41629;SDS011;27322;49.488;8.480;2022-08-25T05:48:19;9.13;;;3.75;;
41629;SDS011;27322;49.488;8.480;2022-08-25T05:50:58;7.70;;;3.78;;
41629;SDS011;27322;49.488;8.480;2022-08-25T05:53:26;8.63;;;3.55;;
41629;SDS011;27322;49.488;8.480;2022-08-25T05:55:54;7.38;;;3.75;;
41629;SDS011;27322;49.488;8.480;2022-08-25T05:58:21;5.93;;;3.42;;
41629;SDS011;27322;49.488;8.480;2022-08-25T06:00:48;6.80;;;3.55;;
41629;SDS011;27322;49.488;8.480;2022-08-25T06:03:15;8.35;;;3.85;;
41629;SDS011;27322;49.488;8.480;2022-08-25T06:05:41;5.40;;;3.30;;
41629;SDS011;27322;49.488;8.480;2022-08-25T06:08:06;6.78;;;3.63;;
41629;SDS011;27322;49.488;8.480;2022-08-25T06:10:33;5.90;;;3.35;;
41629;SDS011;27322;49.488;8.480;2022-08-25T06:12:59;7.00;;;3.50;;
41629;SDS011;27322;49.488;8.480;2022-08-25T06:15:25;6.95;;;3.53;;
41629;SDS011;27322;49.488;8.480;2022-08-25T06:17:51;5.28;;;3.30;;
41629;SDS011;27322;49.488;8.480;2022-08-25T06:20:19;9.07;;;3.90;;
41629;SDS011;27322;49.488;8.480;2022-08-25T06:22:46;6.95;;;3.60;;
41629;SDS011;27322;49.488;8.480;2022-08-25T06:25:13;14.57;;;4.50;;
41629;SDS011;27322;49.488;8.480;2022-08-25T06:27:40;7.13;;;3.65;;
41629;SDS011;27322;49.488;8.480;2022-08-25T06:30:07;8.40;;;3.60;;
41629;SDS011;27322;49.488;8.480;2022-08-25T06:32:36;6.30;;;3.47;;
41629;SDS011;27322;49.488;8.480;2022-08-25T06:35:07;5.43;;;3.35;;
41629;SDS011;27322;49.488;8.480;2022-08-25T06:37:34;7.03;;;3.67;;
41629;SDS011;27322;49.488;8.480;2022-08-25T06:40:00;6.70;;;3.50;;
41629;SDS011;27322;49.488;8.480;2022-08-25T06:42:26;5.63;;;3.38;;
41629;SDS011;27322;49.488;8.480;2022-08-25T06:44:52;8.73;;;3.40;;
41629;SDS011;27322;49.488;8.480;2022-08-25T06:47:18;7.80;;;3.90;;
41629;SDS011;27322;49.488;8.480;2022-08-25T06:49:44;6.47;;;3.53;;
41629;SDS011;27322;49.488;8.480;2022-08-25T06:52:11;6.57;;;3.47;;
41629;SDS011;27322;49.488;8.480;2022-08-25T06:54:37;6.95;;;3.40;;
41629;SDS011;27322;49.488;8.480;2022-08-25T06:57:03;8.57;;;4.32;;
41629;SDS011;27322;49.488;8.480;2022-08-25T06:59:29;6.10;;;3.55;;
41629;SDS011;27322;49.488;8.480;2022-08-25T07:01:55;5.45;;;3.50;;
41629;SDS011;27322;49.488;8.480;2022-08-25T07:04:20;8.23;;;4.00;;
41629;SDS011;27322;49.488;8.480;2022-08-25T07:06:46;7.18;;;3.28;;
41629;SDS011;27322;49.488;8.480;2022-08-25T07:09:12;7.35;;;3.78;;
41629;SDS011;27322;49.488;8.480;2022-08-25T07:11:39;6.38;;;3.55;;
41629;SDS011;27322;49.488;8.480;2022-08-25T07:14:06;7.30;;;3.58;;
41629;SDS011;27322;49.488;8.480;2022-08-25T07:16:33;8.45;;;3.85;;
41629;SDS011;27322;49.488;8.480;2022-08-25T07:19:00;6.45;;;3.25;;
41629;SDS011;27322;49.488;8.480;2022-08-25T07:21:26;8.38;;;3.60;;
41629;SDS011;27322;49.488;8.480;2022-08-25T07:23:54;7.13;;;3.65;;
41629;SDS011;27322;49.488;8.480;2022-08-25T07:26:24;6.88;;;3.60;;
41629;SDS011;27322;49.488;8.480;2022-08-25T07:28:53;6.80;;;3.50;;
41629;SDS011;27322;49.488;8.480;2022-08-25T07:31:19;7.18;;;3.30;;
41629;SDS011;27322;49.488;8.480;2022-08-25T07:33:45;6.32;;;3.38;;
41629;SDS011;27322;49.488;8.480;2022-08-25T07:36:29;7.63;;;3.17;;
41629;SDS011;27322;49.488;8.480;2022-08-25T07:38:56;6.68;;;3.58;;
41629;SDS011;27322;49.488;8.480;2022-08-25T07:41:23;5.78;;;3.63;;
41629;SDS011;27322;49.488;8.480;2022-08-25T07:43:49;6.45;;;3.28;;
41629;SDS011;27322;49.488;8.480;2022-08-25T07:46:15;5.63;;;3.60;;
41629;SDS011;27322;49.488;8.480;2022-08-25T07:48:40;5.80;;;3.92;;
41629;SDS011;27322;49.488;8.480;2022-08-25T07:51:10;7.07;;;3.50;;
41629;SDS011;27322;49.488;8.480;2022-08-25T07:53:38;5.40;;;3.70;;
41629;SDS011;27322;49.488;8.480;2022-08-25T07:56:08;7.22;;;3.58;;
41629;SDS011;27322;49.488;8.480;2022-08-25T07:58:38;7.05;;;3.63;;
41629;SDS011;27322;49.488;8.480;2022-08-25T08:01:05;6.40;;;3.65;;
41629;SDS011;27322;49.488;8.480;2022-08-25T08:03:31;5.07;;;3.20;;
41629;SDS011;27322;49.488;8.480;2022-08-25T08:05:58;7.28;;;3.40;;
41629;SDS011;27322;49.488;8.480;2022-08-25T08:08:24;8.00;;;3.40;;
41629;SDS011;27322;49.488;8.480;2022-08-25T08:10:51;6.53;;;3.10;;
41629;SDS011;27322;49.488;8.480;2022-08-25T08:13:16;5.22;;;3.33;;
41629;SDS011;27322;49.488;8.480;2022-08-25T08:15:43;4.88;;;3.10;;
41629;SDS011;27322;49.488;8.480;2022-08-25T08:18:09;6.45;;;3.40;;
41629;SDS011;27322;49.488;8.480;2022-08-25T08:20:35;4.72;;;3.00;;
41629;SDS011;27322;49.488;8.480;2022-08-25T08:23:01;5.35;;;3.40;;
41629;SDS011;27322;49.488;8.480;2022-08-25T08:25:28;8.18;;;3.50;;
41629;SDS011;27322;49.488;8.480;2022-08-25T08:27:54;4.93;;;3.20;;
41629;SDS011;27322;49.488;8.480;2022-08-25T08:30:20;4.60;;;3.00;;
41629;SDS011;27322;49.488;8.480;2022-08-25T08:32:47;5.70;;;3.15;;
41629;SDS011;27322;49.488;8.480;2022-08-25T08:35:15;6.93;;;3.20;;
41629;SDS011;27322;49.488;8.480;2022-08-25T08:37:43;4.80;;;3.28;;
41629;SDS011;27322;49.488;8.480;2022-08-25T08:40:09;6.78;;;3.20;;
41629;SDS011;27322;49.488;8.480;2022-08-25T08:45:52;5.15;;;3.25;;
41629;SDS011;27322;49.488;8.480;2022-08-25T08:56:15;5.85;;;3.50;;
41629;SDS011;27322;49.488;8.480;2022-08-25T08:58:47;7.57;;;3.40;;
41629;SDS011;27322;49.488;8.480;2022-08-25T09:01:18;6.00;;;3.40;;
41629;SDS011;27322;49.488;8.480;2022-08-25T09:03:58;6.72;;;3.28;;
41629;SDS011;27322;49.488;8.480;2022-08-25T09:06:40;7.90;;;3.20;;
41629;SDS011;27322;49.488;8.480;2022-08-25T09:09:08;6.85;;;3.40;;
41629;SDS011;27322;49.488;8.480;2022-08-25T09:11:46;5.57;;;3.30;;
41629;SDS011;27322;49.488;8.480;2022-08-25T09:19:40;5.57;;;3.50;;
41629;SDS011;27322;49.488;8.480;2022-08-25T09:30:10;7.18;;;3.50;;
41629;SDS011;27322;49.488;8.480;2022-08-25T09:32:41;5.50;;;2.97;;
41629;SDS011;27322;49.488;8.480;2022-08-25T09:35:17;4.75;;;3.40;;
41629;SDS011;27322;49.488;8.480;2022-08-25T09:38:09;5.25;;;3.40;;
41629;SDS011;27322;49.488;8.480;2022-08-25T09:40:36;5.35;;;3.75;;
41629;SDS011;27322;49.488;8.480;2022-08-25T09:43:17;4.65;;;2.70;;
41629;SDS011;27322;49.488;8.480;2022-08-25T09:48:48;6.20;;;3.20;;
41629;SDS011;27322;49.488;8.480;2022-08-25T09:51:36;5.60;;;2.90;;
41629;SDS011;27322;49.488;8.480;2022-08-25T09:56:50;6.13;;;3.08;;
41629;SDS011;27322;49.488;8.480;2022-08-25T09:59:22;6.80;;;3.30;;
41629;SDS011;27322;49.488;8.480;2022-08-25T10:02:00;7.63;;;3.17;;
41629;SDS011;27322;49.488;8.480;2022-08-25T10:04:38;6.03;;;3.13;;
41629;SDS011;27322;49.488;8.480;2022-08-25T10:07:08;4.35;;;2.80;;
41629;SDS011;27322;49.488;8.480;2022-08-25T10:09:53;3.90;;;2.67;;
41629;SDS011;27322;49.488;8.480;2022-08-25T10:12:40;4.07;;;2.47;;
41629;SDS011;27322;49.488;8.480;2022-08-25T10:15:21;5.68;;;3.50;;
41629;SDS011;27322;49.488;8.480;2022-08-25T10:18:01;3.83;;;2.83;;
41629;SDS011;27322;49.488;8.480;2022-08-25T10:23:47;5.53;;;3.00;;
41629;SDS011;27322;49.488;8.480;2022-08-25T10:36:57;4.85;;;2.90;;
41629;SDS011;27322;49.488;8.480;2022-08-25T10:39:37;3.28;;;2.47;;
41629;SDS011;27322;49.488;8.480;2022-08-25T10:45:06;4.47;;;2.63;;
41629;SDS011;27322;49.488;8.480;2022-08-25T10:50:53;6.28;;;2.60;;
41629;SDS011;27322;49.488;8.480;2022-08-25T10:56:34;5.10;;;2.42;;
41629;SDS011;27322;49.488;8.480;2022-08-25T11:04:08;4.50;;;2.50;;
41629;SDS011;27322;49.488;8.480;2022-08-25T11:06:51;3.67;;;2.40;;
41629;SDS011;27322;49.488;8.480;2022-08-25T11:09:51;4.40;;;2.70;;
41629;SDS011;27322;49.488;8.480;2022-08-25T11:12:29;4.07;;;2.20;;
41629;SDS011;27322;49.488;8.480;2022-08-25T11:15:42;3.90;;;2.22;;
41629;SDS011;27322;49.488;8.480;2022-08-25T11:23:30;4.72;;;2.40;;
41629;SDS011;27322;49.488;8.480;2022-08-25T11:25:59;4.40;;;2.80;;
41629;SDS011;27322;49.488;8.480;2022-08-25T11:31:08;4.38;;;2.33;;
41629;SDS011;27322;49.488;8.480;2022-08-25T11:33:34;4.32;;;2.20;;
41629;SDS011;27322;49.488;8.480;2022-08-25T11:36:02;5.35;;;2.70;;
41629;SDS011;27322;49.488;8.480;2022-08-25T11:38:49;4.50;;;2.80;;
41629;SDS011;27322;49.488;8.480;2022-08-25T11:50:05;4.68;;;2.60;;
41629;SDS011;27322;49.488;8.480;2022-08-25T11:52:37;5.10;;;2.80;;
41629;SDS011;27322;49.488;8.480;2022-08-25T12:00:51;5.55;;;2.60;;
41629;SDS011;27322;49.488;8.480;2022-08-25T12:08:46;5.03;;;2.55;;
41629;SDS011;27322;49.488;8.480;2022-08-25T12:43:34;3.30;;;2.40;;
41629;SDS011;27322;49.488;8.480;2022-08-25T12:56:51;3.90;;;2.30;;
41629;SDS011;27322;49.488;8.480;2022-08-25T12:59:31;4.35;;;2.60;;
41629;SDS011;27322;49.488;8.480;2022-08-25T13:02:05;6.13;;;2.72;;
41629;SDS011;27322;49.488;8.480;2022-08-25T13:08:03;3.75;;;2.30;;
41629;SDS011;27322;49.488;8.480;2022-08-25T13:15:34;3.28;;;2.05;;
41629;SDS011;27322;49.488;8.480;2022-08-25T13:18:12;5.38;;;2.80;;
41629;SDS011;27322;49.488;8.480;2022-08-25T13:20:47;3.78;;;2.33;;
41629;SDS011;27322;49.488;8.480;2022-08-25T13:23:28;4.85;;;2.38;;
41629;SDS011;27322;49.488;8.480;2022-08-25T13:25:57;5.10;;;2.10;;
41629;SDS011;27322;49.488;8.480;2022-08-25T13:28:26;3.55;;;2.10;;
41629;SDS011;27322;49.488;8.480;2022-08-25T13:31:02;4.05;;;2.20;;
41629;SDS011;27322;49.488;8.480;2022-08-25T13:33:33;3.03;;;2.20;;
41629;SDS011;27322;49.488;8.480;2022-08-25T13:36:00;3.15;;;1.90;;
41629;SDS011;27322;49.488;8.480;2022-08-25T13:38:46;3.90;;;2.30;;
41629;SDS011;27322;49.488;8.480;2022-08-25T13:41:21;3.45;;;1.75;;
41629;SDS011;27322;49.488;8.480;2022-08-25T13:43:49;4.93;;;2.08;;
41629;SDS011;27322;49.488;8.480;2022-08-25T13:46:22;3.05;;;1.83;;
41629;SDS011;27322;49.488;8.480;2022-08-25T13:48:48;4.50;;;2.15;;
41629;SDS011;27322;49.488;8.480;2022-08-25T13:51:22;4.88;;;2.20;;
41629;SDS011;27322;49.488;8.480;2022-08-25T13:56:39;4.15;;;2.10;;
41629;SDS011;27322;49.488;8.480;2022-08-25T13:59:10;6.72;;;2.65;;
41629;SDS011;27322;49.488;8.480;2022-08-25T14:01:48;4.63;;;2.40;;
41629;SDS011;27322;49.488;8.480;2022-08-25T14:04:31;5.43;;;2.40;;
41629;SDS011;27322;49.488;8.480;2022-08-25T14:09:49;5.00;;;2.13;;
41629;SDS011;27322;49.488;8.480;2022-08-25T14:17:44;4.22;;;2.10;;
41629;SDS011;27322;49.488;8.480;2022-08-25T14:22:53;3.83;;;2.38;;
41629;SDS011;27322;49.488;8.480;2022-08-25T14:25:21;4.93;;;2.45;;
41629;SDS011;27322;49.488;8.480;2022-08-25T14:27:53;3.17;;;2.13;;
41629;SDS011;27322;49.488;8.480;2022-08-25T14:30:23;3.35;;;1.85;;
41629;SDS011;27322;49.488;8.480;2022-08-25T14:32:49;4.68;;;2.30;;
41629;SDS011;27322;49.488;8.480;2022-08-25T14:35:15;4.40;;;2.25;;
41629;SDS011;27322;49.488;8.480;2022-08-25T14:37:42;4.72;;;2.20;;
41629;SDS011;27322;49.488;8.480;2022-08-25T14:40:09;3.83;;;2.03;;
41629;SDS011;27322;49.488;8.480;2022-08-25T14:42:38;3.60;;;2.17;;
41629;SDS011;27322;49.488;8.480;2022-08-25T14:45:04;7.15;;;2.30;;
41629;SDS011;27322;49.488;8.480;2022-08-25T14:47:30;4.30;;;2.20;;
41629;SDS011;27322;49.488;8.480;2022-08-25T14:49:56;4.07;;;2.17;;
41629;SDS011;27322;49.488;8.480;2022-08-25T14:52:26;4.22;;;2.10;;
41629;SDS011;27322;49.488;8.480;2022-08-25T14:54:54;4.45;;;2.10;;
41629;SDS011;27322;49.488;8.480;2022-08-25T14:57:23;3.60;;;2.20;;
41629;SDS011;27322;49.488;8.480;2022-08-25T14:59:49;3.47;;;2.05;;
41629;SDS011;27322;49.488;8.480;2022-08-25T15:02:16;4.80;;;2.00;;
41629;SDS011;27322;49.488;8.480;2022-08-25T15:04:48;3.30;;;2.10;;
41629;SDS011;27322;49.488;8.480;2022-08-25T15:07:16;3.20;;;2.08;;
41629;SDS011;27322;49.488;8.480;2022-08-25T15:10:01;3.42;;;1.88;;
41629;SDS011;27322;49.488;8.480;2022-08-25T15:12:28;4.28;;;1.98;;
41629;SDS011;27322;49.488;8.480;2022-08-25T15:14:55;3.45;;;2.00;;
41629;SDS011;27322;49.488;8.480;2022-08-25T15:17:21;5.15;;;2.00;;
41629;SDS011;27322;49.488;8.480;2022-08-25T15:19:47;3.75;;;2.30;;
41629;SDS011;27322;49.488;8.480;2022-08-25T15:22:12;2.80;;;1.80;;
41629;SDS011;27322;49.488;8.480;2022-08-25T15:24:38;3.42;;;2.13;;
41629;SDS011;27322;49.488;8.480;2022-08-25T15:27:04;4.22;;;1.90;;
41629;SDS011;27322;49.488;8.480;2022-08-25T15:29:32;5.10;;;1.90;;
41629;SDS011;27322;49.488;8.480;2022-08-25T15:32:02;3.13;;;2.17;;
41629;SDS011;27322;49.488;8.480;2022-08-25T15:34:29;4.55;;;2.08;;
41629;SDS011;27322;49.488;8.480;2022-08-25T15:36:55;4.10;;;1.88;;
41629;SDS011;27322;49.488;8.480;2022-08-25T15:39:22;3.35;;;2.22;;
41629;SDS011;27322;49.488;8.480;2022-08-25T15:41:48;5.82;;;2.20;;
41629;SDS011;27322;49.488;8.480;2022-08-25T15:44:16;3.92;;;2.00;;
41629;SDS011;27322;49.488;8.480;2022-08-25T15:46:42;3.92;;;2.10;;
41629;SDS011;27322;49.488;8.480;2022-08-25T15:49:08;6.20;;;2.15;;
41629;SDS011;27322;49.488;8.480;2022-08-25T15:51:34;4.80;;;2.00;;
41629;SDS011;27322;49.488;8.480;2022-08-25T15:54:00;4.13;;;2.40;;
41629;SDS011;27322;49.488;8.480;2022-08-25T15:56:25;3.88;;;1.98;;
41629;SDS011;27322;49.488;8.480;2022-08-25T15:58:51;3.70;;;2.20;;
41629;SDS011;27322;49.488;8.480;2022-08-25T16:01:19;3.88;;;2.15;;
41629;SDS011;27322;49.488;8.480;2022-08-25T16:03:47;5.03;;;1.80;;
41629;SDS011;27322;49.488;8.480;2022-08-25T16:06:13;4.90;;;2.10;;
41629;SDS011;27322;49.488;8.480;2022-08-25T16:08:39;3.90;;;2.13;;
41629;SDS011;27322;49.488;8.480;2022-08-25T16:11:05;3.05;;;1.80;;
41629;SDS011;27322;49.488;8.480;2022-08-25T16:13:45;3.67;;;2.28;;
41629;SDS011;27322;49.488;8.480;2022-08-25T16:16:12;4.70;;;2.25;;
41629;SDS011;27322;49.488;8.480;2022-08-25T16:18:39;6.00;;;2.00;;
41629;SDS011;27322;49.488;8.480;2022-08-25T16:21:13;3.28;;;1.98;;
41629;SDS011;27322;49.488;8.480;2022-08-25T16:23:41;3.78;;;2.10;;
41629;SDS011;27322;49.488;8.480;2022-08-25T16:26:07;3.85;;;2.15;;
41629;SDS011;27322;49.488;8.480;2022-08-25T16:28:34;3.95;;;2.10;;
41629;SDS011;27322;49.488;8.480;2022-08-25T16:31:01;3.90;;;2.08;;
41629;SDS011;27322;49.488;8.480;2022-08-25T16:33:27;3.60;;;1.90;;
41629;SDS011;27322;49.488;8.480;2022-08-25T16:36:01;3.55;;;1.90;;
41629;SDS011;27322;49.488;8.480;2022-08-25T16:38:35;3.00;;;1.70;;
41629;SDS011;27322;49.488;8.480;2022-08-25T16:41:07;2.97;;;1.88;;
41629;SDS011;27322;49.488;8.480;2022-08-25T16:43:35;7.25;;;1.92;;
41629;SDS011;27322;49.488;8.480;2022-08-25T16:46:02;4.45;;;2.03;;
41629;SDS011;27322;49.488;8.480;2022-08-25T16:48:30;4.22;;;2.00;;
41629;SDS011;27322;49.488;8.480;2022-08-25T16:50:56;4.35;;;2.25;;
41629;SDS011;27322;49.488;8.480;2022-08-25T16:53:22;3.60;;;2.10;;
41629;SDS011;27322;49.488;8.480;2022-08-25T16:56:06;3.58;;;1.88;;
41629;SDS011;27322;49.488;8.480;2022-08-25T16:58:33;3.35;;;1.90;;
41629;SDS011;27322;49.488;8.480;2022-08-25T17:01:10;3.03;;;1.92;;
41629;SDS011;27322;49.488;8.480;2022-08-25T17:03:37;4.57;;;2.13;;
41629;SDS011;27322;49.488;8.480;2022-08-25T17:06:04;3.67;;;1.90;;
41629;SDS011;27322;49.488;8.480;2022-08-25T17:08:30;4.82;;;2.20;;
41629;SDS011;27322;49.488;8.480;2022-08-25T17:11:09;3.90;;;1.75;;
41629;SDS011;27322;49.488;8.480;2022-08-25T17:13:40;3.53;;;2.08;;
41629;SDS011;27322;49.488;8.480;2022-08-25T17:16:07;3.92;;;2.10;;
41629;SDS011;27322;49.488;8.480;2022-08-25T17:18:33;3.88;;;1.95;;
41629;SDS011;27322;49.488;8.480;2022-08-25T17:21:02;3.17;;;2.00;;
41629;SDS011;27322;49.488;8.480;2022-08-25T17:23:29;3.75;;;1.90;;
41629;SDS011;27322;49.488;8.480;2022-08-25T17:25:56;3.90;;;2.17;;
41629;SDS011;27322;49.488;8.480;2022-08-25T17:28:22;3.15;;;1.90;;
41629;SDS011;27322;49.488;8.480;2022-08-25T17:30:48;3.42;;;2.10;;
41629;SDS011;27322;49.488;8.480;2022-08-25T17:33:15;7.60;;;2.20;;
41629;SDS011;27322;49.488;8.480;2022-08-25T17:35:42;3.40;;;2.13;;
41629;SDS011;27322;49.488;8.480;2022-08-25T17:38:10;3.35;;;2.00;;
41629;SDS011;27322;49.488;8.480;2022-08-25T17:40:37;4.47;;;2.42;;